sensor_id;sensor_type;location;lat;lon;timestamp;pressure;altitude;pressure_sealevel;temperature;humidity
21290;BME280;10804;48.988;2.408;2023-01-27T00:00:03;101698.38;;;6.49;68.07
21290;BME280;10804;48.988;2.408;2023-01-27T00:02:39;101695.81;;;6.50;67.72
21290;BME280;10804;48.988;2.408;2023-01-27T00:05:08;101690.63;;;6.50;68.00
21290;BME280;10804;48.988;2.408;2023-01-27T00:07:36;101693.22;;;6.50;67.92
21290;BME280;10804;48.988;2.408;2023-01-27T00:10:06;101692.34;;;6.51;67.82
21290;BME280;10804;48.988;2.408;2023-01-27T00:12:34;101689.78;;;6.51;67.82
21290;BME280;10804;48.988;2.408;2023-01-27T00:15:18;101690.63;;;6.52;68.23
21290;BME280;10804;48.988;2.408;2023-01-27T00:17:46;101682.84;;;6.50;67.80
21290;BME280;10804;48.988;2.408;2023-01-27T00:20:13;101689.78;;;6.51;68.25
21290;BME280;10804;48.988;2.408;2023-01-27T00:23:00;101692.34;;;6.51;67.85
21290;BME280;10804;48.988;2.408;2023-01-27T00:25:47;101695.78;;;6.52;68.07
21290;BME280;10804;48.988;2.408;2023-01-27T00:28:23;101695.84;;;6.55;67.77
21290;BME280;10804;48.988;2.408;2023-01-27T00:30:51;101695.81;;;6.53;68.18
21290;BME280;10804;48.988;2.408;2023-01-27T00:33:18;101689.78;;;6.54;67.84
21290;BME280;10804;48.988;2.408;2023-01-27T00:35:56;101684.59;;;6.51;67.81
21290;BME280;10804;48.988;2.408;2023-01-27T00:38:24;101694.94;;;6.54;68.02
21290;BME280;10804;48.988;2.408;2023-01-27T00:40:53;101688.03;;;6.53;68.22
21290;BME280;10804;48.988;2.408;2023-01-27T00:43:39;101681.16;;;6.54;68.14
21290;BME280;10804;48.988;2.408;2023-01-27T00:46:07;101690.63;;;6.56;68.05
21290;BME280;10804;48.988;2.408;2023-01-27T00:48:34;101679.44;;;6.57;67.98
21290;BME280;10804;48.988;2.408;2023-01-27T00:51:02;101683.72;;;6.55;67.88
21290;BME280;10804;48.988;2.408;2023-01-27T00:53:31;101675.94;;;6.55;67.88
21290;BME280;10804;48.988;2.408;2023-01-27T00:56:00;101684.63;;;6.57;67.92
21290;BME280;10804;48.988;2.408;2023-01-27T00:58:28;101677.69;;;6.56;67.72
21290;BME280;10804;48.988;2.408;2023-01-27T01:00:57;101678.56;;;6.57;68.06
21290;BME280;10804;48.988;2.408;2023-01-27T01:03:25;101672.50;;;6.56;67.96
21290;BME280;10804;48.988;2.408;2023-01-27T01:05:56;101674.25;;;6.57;67.85
21290;BME280;10804;48.988;2.408;2023-01-27T01:08:24;101675.13;;;6.59;67.59
21290;BME280;10804;48.988;2.408;2023-01-27T01:10:51;101682.03;;;6.59;67.86
21290;BME280;10804;48.988;2.408;2023-01-27T01:13:20;101676.84;;;6.57;67.98
21290;BME280;10804;48.988;2.408;2023-01-27T01:15:47;101676.84;;;6.57;67.91
21290;BME280;10804;48.988;2.408;2023-01-27T01:18:15;101662.13;;;6.56;67.72
21290;BME280;10804;48.988;2.408;2023-01-27T01:20:45;101669.94;;;6.58;67.90
21290;BME280;10804;48.988;2.408;2023-01-27T01:23:13;101665.63;;;6.58;67.77
21290;BME280;10804;48.988;2.408;2023-01-27T01:25:41;101664.75;;;6.59;68.12
21290;BME280;10804;48.988;2.408;2023-01-27T01:28:10;101663.03;;;6.58;67.88
21290;BME280;10804;48.988;2.408;2023-01-27T01:30:39;101652.66;;;6.60;67.72
21290;BME280;10804;48.988;2.408;2023-01-27T01:33:06;101663.91;;;6.60;67.91
21290;BME280;10804;48.988;2.408;2023-01-27T01:35:36;101666.50;;;6.62;67.77
21290;BME280;10804;48.988;2.408;2023-01-27T01:38:04;101669.09;;;6.60;67.81
21290;BME280;10804;48.988;2.408;2023-01-27T01:40:32;101672.56;;;6.61;67.79
21290;BME280;10804;48.988;2.408;2023-01-27T01:43:02;101672.53;;;6.62;68.12
21290;BME280;10804;48.988;2.408;2023-01-27T01:45:50;101669.94;;;6.62;68.01
21290;BME280;10804;48.988;2.408;2023-01-27T01:51:10;101657.84;;;6.61;67.95
21290;BME280;10804;48.988;2.408;2023-01-27T01:53:41;101664.75;;;6.62;67.77
21290;BME280;10804;48.988;2.408;2023-01-27T01:56:13;101662.19;;;6.64;67.91
21290;BME280;10804;48.988;2.408;2023-01-27T01:58:43;101655.28;;;6.64;67.98
21290;BME280;10804;48.988;2.408;2023-01-27T02:01:14;101659.59;;;6.64;67.65
21290;BME280;10804;48.988;2.408;2023-01-27T02:03:46;101658.72;;;6.63;67.84
21290;BME280;10804;48.988;2.408;2023-01-27T02:06:16;101657.00;;;6.62;67.82
21290;BME280;10804;48.988;2.408;2023-01-27T02:08:44;101646.66;;;6.65;67.83
21290;BME280;10804;48.988;2.408;2023-01-27T02:11:12;101650.97;;;6.65;67.90
21290;BME280;10804;48.988;2.408;2023-01-27T02:13:40;101644.94;;;6.64;67.99
21290;BME280;10804;48.988;2.408;2023-01-27T02:16:09;101651.84;;;6.65;67.89
21290;BME280;10804;48.988;2.408;2023-01-27T02:18:39;101644.91;;;6.66;67.94
21290;BME280;10804;48.988;2.408;2023-01-27T02:21:07;101641.47;;;6.65;68.03
21290;BME280;10804;48.988;2.408;2023-01-27T02:23:45;101638.03;;;6.66;67.79
21290;BME280;10804;48.988;2.408;2023-01-27T02:26:20;101643.22;;;6.66;67.86
21290;BME280;10804;48.988;2.408;2023-01-27T02:28:53;101637.97;;;6.63;68.08
21290;BME280;10804;48.988;2.408;2023-01-27T02:31:22;101633.69;;;6.65;67.86
21290;BME280;10804;48.988;2.408;2023-01-27T02:33:51;101632.84;;;6.66;68.00
21290;BME280;10804;48.988;2.408;2023-01-27T02:36:19;101624.19;;;6.67;68.06
21290;BME280;10804;48.988;2.408;2023-01-27T02:38:48;101619.88;;;6.66;67.92
21290;BME280;10804;48.988;2.408;2023-01-27T02:41:20;101626.81;;;6.69;67.93
21290;BME280;10804;48.988;2.408;2023-01-27T02:43:50;101621.59;;;6.67;67.74
21290;BME280;10804;48.988;2.408;2023-01-27T02:46:19;101625.03;;;6.63;68.19
21290;BME280;10804;48.988;2.408;2023-01-27T02:48:47;101629.38;;;6.67;67.91
21290;BME280;10804;48.988;2.408;2023-01-27T02:51:15;101624.19;;;6.67;67.74
21290;BME280;10804;48.988;2.408;2023-01-27T02:53:44;101630.22;;;6.65;68.11
21290;BME280;10804;48.988;2.408;2023-01-27T02:56:11;101623.31;;;6.67;68.29
21290;BME280;10804;48.988;2.408;2023-01-27T02:58:40;101623.34;;;6.65;67.84
21290;BME280;10804;48.988;2.408;2023-01-27T03:01:13;101623.31;;;6.67;68.20
21290;BME280;10804;48.988;2.408;2023-01-27T03:03:40;101622.47;;;6.66;68.00
21290;BME280;10804;48.988;2.408;2023-01-27T03:06:12;101620.75;;;6.68;67.70
21290;BME280;10804;48.988;2.408;2023-01-27T03:08:40;101627.66;;;6.69;67.95
21290;BME280;10804;48.988;2.408;2023-01-27T03:11:08;101618.13;;;6.67;67.78
21290;BME280;10804;48.988;2.408;2023-01-27T03:13:38;101620.75;;;6.68;67.68
21290;BME280;10804;48.988;2.408;2023-01-27T03:16:07;101621.63;;;6.69;68.01
21290;BME280;10804;48.988;2.408;2023-01-27T03:18:53;101606.91;;;6.69;68.08
21290;BME280;10804;48.988;2.408;2023-01-27T03:21:21;101612.09;;;6.66;68.21
21290;BME280;10804;48.988;2.408;2023-01-27T03:23:48;101607.78;;;6.68;67.94
21290;BME280;10804;48.988;2.408;2023-01-27T03:26:22;101618.16;;;6.70;68.10
21290;BME280;10804;48.988;2.408;2023-01-27T03:28:54;101606.06;;;6.70;67.96
21290;BME280;10804;48.988;2.408;2023-01-27T03:31:40;101617.28;;;6.69;67.96
21290;BME280;10804;48.988;2.408;2023-01-27T03:34:09;101619.03;;;6.72;67.71
21290;BME280;10804;48.988;2.408;2023-01-27T03:36:42;101617.31;;;6.72;67.78
21290;BME280;10804;48.988;2.408;2023-01-27T03:39:28;101617.28;;;6.69;67.69
21290;BME280;10804;48.988;2.408;2023-01-27T03:42:13;101619.00;;;6.70;67.73
21290;BME280;10804;48.988;2.408;2023-01-27T03:44:58;101621.59;;;6.70;67.57
21290;BME280;10804;48.988;2.408;2023-01-27T03:47:44;101616.44;;;6.69;68.18
21290;BME280;10804;48.988;2.408;2023-01-27T03:50:12;101616.41;;;6.67;68.13
21290;BME280;10804;48.988;2.408;2023-01-27T03:52:44;101616.44;;;6.69;67.62
21290;BME280;10804;48.988;2.408;2023-01-27T03:55:28;101615.56;;;6.68;67.79
21290;BME280;10804;48.988;2.408;2023-01-27T03:57:56;101614.69;;;6.66;68.11
21290;BME280;10804;48.988;2.408;2023-01-27T04:00:31;101617.28;;;6.69;67.94
21290;BME280;10804;48.988;2.408;2023-01-27T04:03:00;101611.25;;;6.69;67.91
21290;BME280;10804;48.988;2.408;2023-01-27T04:05:44;101612.97;;;6.68;68.06
21290;BME280;10804;48.988;2.408;2023-01-27T04:08:29;101613.81;;;6.70;67.97
21290;BME280;10804;48.988;2.408;2023-01-27T04:11:01;101614.72;;;6.71;68.17
21290;BME280;10804;48.988;2.408;2023-01-27T04:13:42;101608.66;;;6.69;67.73
21290;BME280;10804;48.988;2.408;2023-01-27T04:16:09;101617.28;;;6.69;68.06
21290;BME280;10804;48.988;2.408;2023-01-27T04:18:38;101608.66;;;6.70;67.73
21290;BME280;10804;48.988;2.408;2023-01-27T04:21:05;101615.56;;;6.70;67.91
21290;BME280;10804;48.988;2.408;2023-01-27T04:23:33;101613.81;;;6.70;68.04
21290;BME280;10804;48.988;2.408;2023-01-27T04:26:00;101612.97;;;6.70;68.01
21290;BME280;10804;48.988;2.408;2023-01-27T04:28:27;101616.41;;;6.70;67.91
21290;BME280;10804;48.988;2.408;2023-01-27T04:30:57;101609.50;;;6.69;67.87
21290;BME280;10804;48.988;2.408;2023-01-27T04:33:25;101607.78;;;6.70;67.98
21290;BME280;10804;48.988;2.408;2023-01-27T04:35:54;101611.25;;;6.72;67.91
21290;BME280;10804;48.988;2.408;2023-01-27T04:38:21;101612.09;;;6.69;67.97
21290;BME280;10804;48.988;2.408;2023-01-27T04:40:49;101611.25;;;6.70;67.71
21290;BME280;10804;48.988;2.408;2023-01-27T04:43:16;101603.47;;;6.70;67.97
21290;BME280;10804;48.988;2.408;2023-01-27T04:45:46;101597.41;;;6.68;67.88
21290;BME280;10804;48.988;2.408;2023-01-27T04:48:14;101593.97;;;6.69;68.02
21290;BME280;10804;48.988;2.408;2023-01-27T04:50:41;101600.88;;;6.70;68.14
21290;BME280;10804;48.988;2.408;2023-01-27T04:53:10;101601.75;;;6.71;67.91
21290;BME280;10804;48.988;2.408;2023-01-27T04:55:37;101601.75;;;6.72;67.78
21290;BME280;10804;48.988;2.408;2023-01-27T04:58:05;101591.41;;;6.72;68.07
21290;BME280;10804;48.988;2.408;2023-01-27T05:00:32;101601.75;;;6.72;68.05
21290;BME280;10804;48.988;2.408;2023-01-27T05:02:59;101601.75;;;6.72;67.89
21290;BME280;10804;48.988;2.408;2023-01-27T05:05:29;101597.44;;;6.73;68.20
21290;BME280;10804;48.988;2.408;2023-01-27T05:08:01;101593.09;;;6.70;68.03
21290;BME280;10804;48.988;2.408;2023-01-27T05:10:30;101591.38;;;6.71;67.74
21290;BME280;10804;48.988;2.408;2023-01-27T05:12:58;101594.81;;;6.71;67.80
21290;BME280;10804;48.988;2.408;2023-01-27T05:15:27;101596.59;;;6.72;67.95
21290;BME280;10804;48.988;2.408;2023-01-27T05:17:54;101593.13;;;6.73;67.64
21290;BME280;10804;48.988;2.408;2023-01-27T05:20:22;101588.81;;;6.72;67.67
21290;BME280;10804;48.988;2.408;2023-01-27T05:22:50;101594.81;;;6.71;67.79
21290;BME280;10804;48.988;2.408;2023-01-27T05:25:41;101592.25;;;6.74;67.79
21290;BME280;10804;48.988;2.408;2023-01-27T05:28:09;101600.03;;;6.73;67.89
21290;BME280;10804;48.988;2.408;2023-01-27T05:30:36;101599.19;;;6.72;67.83
21290;BME280;10804;48.988;2.408;2023-01-27T05:33:04;101596.59;;;6.72;68.14
21290;BME280;10804;48.988;2.408;2023-01-27T05:35:31;101594.00;;;6.72;68.00
21290;BME280;10804;48.988;2.408;2023-01-27T05:37:59;101593.13;;;6.73;67.92
21290;BME280;10804;48.988;2.408;2023-01-27T05:40:26;101598.31;;;6.73;67.78
21290;BME280;10804;48.988;2.408;2023-01-27T05:42:55;101600.03;;;6.74;67.72
21290;BME280;10804;48.988;2.408;2023-01-27T05:45:22;101598.31;;;6.73;68.11
21290;BME280;10804;48.988;2.408;2023-01-27T05:47:49;101596.59;;;6.72;67.91
21290;BME280;10804;48.988;2.408;2023-01-27T05:50:17;101593.13;;;6.73;67.72
21290;BME280;10804;48.988;2.408;2023-01-27T05:52:44;101591.41;;;6.75;67.80
21290;BME280;10804;48.988;2.408;2023-01-27T05:55:12;101593.13;;;6.73;67.98
21290;BME280;10804;48.988;2.408;2023-01-27T05:57:39;101605.25;;;6.76;67.90
21290;BME280;10804;48.988;2.408;2023-01-27T06:00:09;101612.13;;;6.75;67.65
21290;BME280;10804;48.988;2.408;2023-01-27T06:02:37;101601.75;;;6.72;67.77
21290;BME280;10804;48.988;2.408;2023-01-27T06:05:05;101601.75;;;6.74;67.78
21290;BME280;10804;48.988;2.408;2023-01-27T06:07:32;101599.16;;;6.74;68.10
21290;BME280;10804;48.988;2.408;2023-01-27T06:09:59;101603.50;;;6.73;67.86
21290;BME280;10804;48.988;2.408;2023-01-27T06:12:27;101608.69;;;6.76;67.63
21290;BME280;10804;48.988;2.408;2023-01-27T06:14:54;101615.59;;;6.74;67.79
21290;BME280;10804;48.988;2.408;2023-01-27T06:17:25;101606.94;;;6.75;67.91
21290;BME280;10804;48.988;2.408;2023-01-27T06:19:53;101610.41;;;6.74;67.94
21290;BME280;10804;48.988;2.408;2023-01-27T06:22:20;101606.06;;;6.75;67.70
21290;BME280;10804;48.988;2.408;2023-01-27T06:24:47;101606.94;;;6.74;68.12
21290;BME280;10804;48.988;2.408;2023-01-27T06:27:14;101610.41;;;6.74;67.95
21290;BME280;10804;48.988;2.408;2023-01-27T06:29:42;101613.84;;;6.76;67.64
21290;BME280;10804;48.988;2.408;2023-01-27T06:32:09;101613.84;;;6.76;67.75
21290;BME280;10804;48.988;2.408;2023-01-27T06:34:38;101617.31;;;6.75;67.68
21290;BME280;10804;48.988;2.408;2023-01-27T06:37:05;101610.41;;;6.74;67.63
21290;BME280;10804;48.988;2.408;2023-01-27T06:39:33;101615.59;;;6.74;67.90
21290;BME280;10804;48.988;2.408;2023-01-27T06:42:00;101615.59;;;6.74;68.05
21290;BME280;10804;48.988;2.408;2023-01-27T06:44:27;101620.78;;;6.74;68.13
21290;BME280;10804;48.988;2.408;2023-01-27T06:46:55;101620.78;;;6.74;67.77
21290;BME280;10804;48.988;2.408;2023-01-27T06:49:22;101610.41;;;6.74;67.65
21290;BME280;10804;48.988;2.408;2023-01-27T06:51:50;101617.31;;;6.75;67.78
21290;BME280;10804;48.988;2.408;2023-01-27T06:54:19;101621.63;;;6.79;67.92
21290;BME280;10804;48.988;2.408;2023-01-27T06:56:46;101615.59;;;6.77;67.61
21290;BME280;10804;48.988;2.408;2023-01-27T06:59:14;101608.69;;;6.76;67.71
21290;BME280;10804;48.988;2.408;2023-01-27T07:01:41;101617.31;;;6.75;67.73
21290;BME280;10804;48.988;2.408;2023-01-27T07:04:09;101624.22;;;6.76;67.79
21290;BME280;10804;48.988;2.408;2023-01-27T07:06:37;101627.69;;;6.75;67.59
21290;BME280;10804;48.988;2.408;2023-01-27T07:09:05;101620.78;;;6.77;68.06
21290;BME280;10804;48.988;2.408;2023-01-27T07:11:33;101631.16;;;6.77;67.99
21290;BME280;10804;48.988;2.408;2023-01-27T07:14:00;101631.16;;;6.77;68.04
21290;BME280;10804;48.988;2.408;2023-01-27T07:16:28;101631.16;;;6.77;67.96
21290;BME280;10804;48.988;2.408;2023-01-27T07:18:55;101630.28;;;6.77;67.68
21290;BME280;10804;48.988;2.408;2023-01-27T07:21:23;101632.88;;;6.78;67.70
21290;BME280;10804;48.988;2.408;2023-01-27T07:23:51;101631.16;;;6.79;67.98
21290;BME280;10804;48.988;2.408;2023-01-27T07:26:20;101634.59;;;6.76;68.01
21290;BME280;10804;48.988;2.408;2023-01-27T07:28:47;101632.88;;;6.78;67.51
21290;BME280;10804;48.988;2.408;2023-01-27T07:31:14;101633.75;;;6.82;67.55
21290;BME280;10804;48.988;2.408;2023-01-27T07:33:41;101633.78;;;6.80;67.77
21290;BME280;10804;48.988;2.408;2023-01-27T07:36:09;101638.09;;;6.81;67.73
21290;BME280;10804;48.988;2.408;2023-01-27T07:38:36;101639.78;;;6.79;67.95
21290;BME280;10804;48.988;2.408;2023-01-27T07:41:04;101645.84;;;6.77;67.69
21290;BME280;10804;48.988;2.408;2023-01-27T07:43:33;101644.97;;;6.76;67.97
21290;BME280;10804;48.988;2.408;2023-01-27T07:46:06;101652.78;;;6.82;67.78
21290;BME280;10804;48.988;2.408;2023-01-27T07:48:34;101659.69;;;6.83;67.64
21290;BME280;10804;48.988;2.408;2023-01-27T07:51:01;101657.94;;;6.81;67.96
21290;BME280;10804;48.988;2.408;2023-01-27T07:53:28;101657.97;;;6.82;68.08
21290;BME280;10804;48.988;2.408;2023-01-27T07:55:58;101660.53;;;6.81;68.04
21290;BME280;10804;48.988;2.408;2023-01-27T07:58:25;101665.75;;;6.84;68.00
21290;BME280;10804;48.988;2.408;2023-01-27T08:00:54;101669.19;;;6.83;67.89
21290;BME280;10804;48.988;2.408;2023-01-27T08:03:23;101667.47;;;6.83;67.96
21290;BME280;10804;48.988;2.408;2023-01-27T08:05:52;101671.78;;;6.84;67.54
21290;BME280;10804;48.988;2.408;2023-01-27T08:08:19;101681.28;;;6.82;67.62
21290;BME280;10804;48.988;2.408;2023-01-27T08:10:46;101677.84;;;6.83;67.71
21290;BME280;10804;48.988;2.408;2023-01-27T08:13:16;101686.47;;;6.82;67.81
21290;BME280;10804;48.988;2.408;2023-01-27T08:15:43;101681.28;;;6.82;67.67
21290;BME280;10804;48.988;2.408;2023-01-27T08:18:12;101680.44;;;6.85;67.89
21290;BME280;10804;48.988;2.408;2023-01-27T08:20:39;101691.66;;;6.85;67.91
21290;BME280;10804;48.988;2.408;2023-01-27T08:23:07;101683.91;;;6.84;67.79
21290;BME280;10804;48.988;2.408;2023-01-27T08:25:34;101685.63;;;6.85;67.94
21290;BME280;10804;48.988;2.408;2023-01-27T08:28:01;101688.22;;;6.83;67.83
21290;BME280;10804;48.988;2.408;2023-01-27T08:30:28;101689.06;;;6.85;67.96
21290;BME280;10804;48.988;2.408;2023-01-27T08:32:56;101683.03;;;6.86;67.71
21290;BME280;10804;48.988;2.408;2023-01-27T08:35:25;101679.56;;;6.81;67.75
21290;BME280;10804;48.988;2.408;2023-01-27T08:37:52;101696.00;;;6.85;67.53
21290;BME280;10804;48.988;2.408;2023-01-27T08:40:19;101692.53;;;6.86;67.90
21290;BME280;10804;48.988;2.408;2023-01-27T08:42:48;101683.91;;;6.87;67.71
21290;BME280;10804;48.988;2.408;2023-01-27T08:45:16;101688.22;;;6.86;67.95
21290;BME280;10804;48.988;2.408;2023-01-27T08:47:43;101689.97;;;6.87;67.70
21290;BME280;10804;48.988;2.408;2023-01-27T08:50:11;101689.94;;;6.84;67.67
21290;BME280;10804;48.988;2.408;2023-01-27T08:52:39;101707.22;;;6.85;67.50
21290;BME280;10804;48.988;2.408;2023-01-27T08:55:07;101704.66;;;6.90;67.50
21290;BME280;10804;48.988;2.408;2023-01-27T08:57:34;101701.16;;;6.86;67.86
21290;BME280;10804;48.988;2.408;2023-01-27T09:00:03;101715.00;;;6.90;67.83
21290;BME280;10804;48.988;2.408;2023-01-27T09:02:31;101721.09;;;6.90;67.38
21290;BME280;10804;48.988;2.408;2023-01-27T09:04:58;101723.69;;;6.90;67.58
21290;BME280;10804;48.988;2.408;2023-01-27T09:07:26;101721.09;;;6.90;67.74
21290;BME280;10804;48.988;2.408;2023-01-27T09:09:54;101724.53;;;6.92;67.75
21290;BME280;10804;48.988;2.408;2023-01-27T09:12:22;101729.72;;;6.89;68.03
21290;BME280;10804;48.988;2.408;2023-01-27T09:14:49;101723.69;;;6.90;67.42
21290;BME280;10804;48.988;2.408;2023-01-27T09:17:16;101731.47;;;6.90;67.69
21290;BME280;10804;48.988;2.408;2023-01-27T09:19:44;101727.13;;;6.92;67.74
21290;BME280;10804;48.988;2.408;2023-01-27T09:22:12;101740.09;;;6.92;67.77
21290;BME280;10804;48.988;2.408;2023-01-27T09:24:39;101738.38;;;6.93;67.91
21290;BME280;10804;48.988;2.408;2023-01-27T09:27:07;101728.00;;;6.91;67.81
21290;BME280;10804;48.988;2.408;2023-01-27T09:29:35;101740.97;;;6.94;67.55
21290;BME280;10804;48.988;2.408;2023-01-27T09:32:02;101743.56;;;6.93;67.64
21290;BME280;10804;48.988;2.408;2023-01-27T09:34:30;101734.91;;;6.92;67.60
21290;BME280;10804;48.988;2.408;2023-01-27T09:37:00;101738.38;;;6.94;67.56
21290;BME280;10804;48.988;2.408;2023-01-27T09:39:29;101734.94;;;6.95;67.61
21290;BME280;10804;48.988;2.408;2023-01-27T09:42:18;101744.44;;;6.95;67.38
21290;BME280;10804;48.988;2.408;2023-01-27T09:45:02;101739.28;;;6.96;67.54
21290;BME280;10804;48.988;2.408;2023-01-27T09:47:43;101745.31;;;6.98;67.61
21290;BME280;10804;48.988;2.408;2023-01-27T09:50:24;101738.41;;;7.00;67.24
21290;BME280;10804;48.988;2.408;2023-01-27T09:53:05;101733.22;;;6.97;67.56
21290;BME280;10804;48.988;2.408;2023-01-27T09:55:38;101746.16;;;6.94;67.58
21290;BME280;10804;48.988;2.408;2023-01-27T09:58:12;101740.97;;;6.94;67.68
21290;BME280;10804;48.988;2.408;2023-01-27T10:00:50;101748.75;;;6.94;67.54
21290;BME280;10804;48.988;2.408;2023-01-27T10:03:36;101750.50;;;6.95;67.72
21290;BME280;10804;48.988;2.408;2023-01-27T10:06:36;101745.31;;;6.95;67.80
21290;BME280;10804;48.988;2.408;2023-01-27T10:09:23;101738.38;;;6.96;67.56
21290;BME280;10804;48.988;2.408;2023-01-27T10:12:06;101748.78;;;6.97;67.46
21290;BME280;10804;48.988;2.408;2023-01-27T10:14:45;101748.78;;;6.97;67.51
21290;BME280;10804;48.988;2.408;2023-01-27T10:17:23;101768.66;;;6.97;67.59
21290;BME280;10804;48.988;2.408;2023-01-27T10:20:13;101766.94;;;6.97;67.12
21290;BME280;10804;48.988;2.408;2023-01-27T10:22:50;101759.16;;;6.97;67.17
21290;BME280;10804;48.988;2.408;2023-01-27T10:25:30;101758.28;;;6.98;67.39
21290;BME280;10804;48.988;2.408;2023-01-27T10:28:10;101763.47;;;6.98;67.77
21290;BME280;10804;48.988;2.408;2023-01-27T10:30:45;101778.16;;;6.99;67.69
21290;BME280;10804;48.988;2.408;2023-01-27T10:33:18;101767.81;;;6.99;67.37
21290;BME280;10804;48.988;2.408;2023-01-27T10:35:51;101769.53;;;7.00;67.68
21290;BME280;10804;48.988;2.408;2023-01-27T10:38:29;101763.47;;;6.98;67.66
21290;BME280;10804;48.988;2.408;2023-01-27T10:41:08;101774.72;;;6.99;67.54
21290;BME280;10804;48.988;2.408;2023-01-27T10:43:46;101773.84;;;7.01;67.88
21290;BME280;10804;48.988;2.408;2023-01-27T10:46:23;101770.38;;;6.99;67.85
21290;BME280;10804;48.988;2.408;2023-01-27T10:48:59;101773.00;;;6.99;67.45
21290;BME280;10804;48.988;2.408;2023-01-27T10:51:32;101763.47;;;7.01;67.81
21290;BME280;10804;48.988;2.408;2023-01-27T10:54:07;101761.78;;;7.02;67.45
21290;BME280;10804;48.988;2.408;2023-01-27T10:56:40;101768.66;;;7.01;67.75
21290;BME280;10804;48.988;2.408;2023-01-27T10:59:14;101762.63;;;7.04;67.68
21290;BME280;10804;48.988;2.408;2023-01-27T11:01:48;101766.09;;;7.04;67.79
21290;BME280;10804;48.988;2.408;2023-01-27T11:04:26;101760.91;;;7.04;67.75
21290;BME280;10804;48.988;2.408;2023-01-27T11:06:57;101755.75;;;7.04;67.57
21290;BME280;10804;48.988;2.408;2023-01-27T11:09:28;101755.72;;;7.06;67.31
21290;BME280;10804;48.988;2.408;2023-01-27T11:11:59;101762.66;;;7.05;67.34
21290;BME280;10804;48.988;2.408;2023-01-27T11:14:29;101754.00;;;7.06;67.47
21290;BME280;10804;48.988;2.408;2023-01-27T11:17:04;101753.13;;;7.06;67.61
21290;BME280;10804;48.988;2.408;2023-01-27T11:19:42;101760.06;;;7.07;67.72
21290;BME280;10804;48.988;2.408;2023-01-27T11:22:17;101750.56;;;7.04;67.70
21290;BME280;10804;48.988;2.408;2023-01-27T11:24:48;101746.25;;;7.08;67.44
21290;BME280;10804;48.988;2.408;2023-01-27T11:27:24;101747.09;;;7.08;67.45
21290;BME280;10804;48.988;2.408;2023-01-27T11:29:56;101747.09;;;7.08;67.67
21290;BME280;10804;48.988;2.408;2023-01-27T11:32:43;101739.31;;;7.10;67.32
21290;BME280;10804;48.988;2.408;2023-01-27T11:35:15;101735.88;;;7.11;67.08
21290;BME280;10804;48.988;2.408;2023-01-27T11:37:44;101731.56;;;7.11;67.29
21290;BME280;10804;48.988;2.408;2023-01-27T11:40:15;101728.09;;;7.12;67.76
21290;BME280;10804;48.988;2.408;2023-01-27T11:42:44;101728.94;;;7.13;67.54
21290;BME280;10804;48.988;2.408;2023-01-27T11:45:15;101726.38;;;7.14;67.62
21290;BME280;10804;48.988;2.408;2023-01-27T11:47:46;101731.56;;;7.14;67.40
21290;BME280;10804;48.988;2.408;2023-01-27T11:50:16;101723.81;;;7.16;67.36
21290;BME280;10804;48.988;2.408;2023-01-27T11:52:48;101729.00;;;7.16;67.35
21290;BME280;10804;48.988;2.408;2023-01-27T11:55:19;101724.66;;;7.16;67.42
21290;BME280;10804;48.988;2.408;2023-01-27T11:57:50;101728.09;;;7.15;67.30
21290;BME280;10804;48.988;2.408;2023-01-27T12:00:22;101721.19;;;7.17;67.64
21290;BME280;10804;48.988;2.408;2023-01-27T12:02:57;101722.09;;;7.19;67.16
21290;BME280;10804;48.988;2.408;2023-01-27T12:05:30;101723.81;;;7.20;67.17
21290;BME280;10804;48.988;2.408;2023-01-27T12:08:01;101723.81;;;7.20;67.35
21290;BME280;10804;48.988;2.408;2023-01-27T12:10:30;101731.59;;;7.20;67.68
21290;BME280;10804;48.988;2.408;2023-01-27T12:13:00;101717.75;;;7.21;67.42
21290;BME280;10804;48.988;2.408;2023-01-27T12:15:34;101714.31;;;7.19;67.59
21290;BME280;10804;48.988;2.408;2023-01-27T12:18:11;101710.84;;;7.22;67.54
21290;BME280;10804;48.988;2.408;2023-01-27T12:20:41;101719.50;;;7.24;67.48
21290;BME280;10804;48.988;2.408;2023-01-27T12:23:19;101710.84;;;7.23;67.30
21290;BME280;10804;48.988;2.408;2023-01-27T12:25:51;101713.44;;;7.25;67.21
21290;BME280;10804;48.988;2.408;2023-01-27T12:28:26;101712.56;;;7.24;67.78
21290;BME280;10804;48.988;2.408;2023-01-27T12:30:56;101703.94;;;7.25;67.09
21290;BME280;10804;48.988;2.408;2023-01-27T12:33:31;101709.16;;;7.25;67.46
21290;BME280;10804;48.988;2.408;2023-01-27T12:36:00;101698.75;;;7.25;67.08
21290;BME280;10804;48.988;2.408;2023-01-27T12:38:34;101700.50;;;7.26;67.44
21290;BME280;10804;48.988;2.408;2023-01-27T12:41:04;101700.50;;;7.26;66.96
21290;BME280;10804;48.988;2.408;2023-01-27T12:43:48;101697.03;;;7.27;67.29
21290;BME280;10804;48.988;2.408;2023-01-27T12:46:21;101687.53;;;7.26;67.01
21290;BME280;10804;48.988;2.408;2023-01-27T12:48:52;101697.00;;;7.29;67.44
21290;BME280;10804;48.988;2.408;2023-01-27T12:51:21;101686.66;;;7.30;67.63
21290;BME280;10804;48.988;2.408;2023-01-27T12:53:50;101690.13;;;7.29;67.61
21290;BME280;10804;48.988;2.408;2023-01-27T12:56:38;101697.91;;;7.31;67.11
21290;BME280;10804;48.988;2.408;2023-01-27T12:59:11;101694.44;;;7.32;67.51
21290;BME280;10804;48.988;2.408;2023-01-27T13:01:40;101695.31;;;7.32;67.46
21290;BME280;10804;48.988;2.408;2023-01-27T13:04:12;101696.19;;;7.33;67.49
21290;BME280;10804;48.988;2.408;2023-01-27T13:06:45;101689.28;;;7.33;67.26
21290;BME280;10804;48.988;2.408;2023-01-27T13:09:23;101691.88;;;7.33;67.20
21290;BME280;10804;48.988;2.408;2023-01-27T13:11:56;101697.06;;;7.33;67.63
21290;BME280;10804;48.988;2.408;2023-01-27T13:14:26;101693.59;;;7.34;67.22
21290;BME280;10804;48.988;2.408;2023-01-27T13:16:56;101690.09;;;7.32;66.82
21290;BME280;10804;48.988;2.408;2023-01-27T13:19:31;101700.53;;;7.35;67.39
21290;BME280;10804;48.988;2.408;2023-01-27T13:22:02;101693.59;;;7.34;67.21